Terminal Aerodrome Forecast
Issued by NWS Cleveland, OH

Home | Current Version | Previous Version | Graphics & Text | Print | Product List | Glossary On
Versions: 1 2 3 4 5 6 7 8 9 10 11 12 13 14 15 16
000
FTUS41 KCLE 141120
TAFCAK
TAF
KCAK 141120Z 1412/1512 VRB03KT 6SM BR SCT080
     FM141300 19007KT P6SM SCT080
     FM150700 20012KT P6SM BKN028 WS020/22040KT=

USA.gov is the U.S. government's official web portal to all federal, state and local government web resources and services.